»·PEaware :: N104LA KSNA-KSNA

N104LA :: KSNA-KSNA

FLIGHT INFORMATION

Flight Status: Arrived
Operator: Privately registered:
United States
More flights under this callsign
Pilot: Bill D. (18789)
Aircraft: CESSNA 172 SKYHAWK
(C172)
More flights by this aircraft type
Origin: KSNA John Wayne-Orange Co
United States
Destination: KSNA John Wayne-Orange Co
United States
More flights between these airports :: More routes between these airports
Route: +SLI
File this flight plan on PilotEdge
Remarks: +CW / Vectors to ILS 25R KSNA for I-1 rating
Altitude:
(Current/Filed)
3,000ft
Speed:
(Current/Filed)
160kts
Departed: 11-Feb-19 09:49 AM
Arrived: 11-Feb-19 10:08 AM
Distance/Time
Traveled:
0nm/0:19
Distance/Time
To Go:
Arrived

Flight Plot

Page will automatically refresh every two minutes.


Map Options




Map Legend


Flown Route
Filed Route
Departure Airport
Arrival Airport
Navaid (VOR, NDB)
Fix

Horizontal Profiles

Position Reports

Time Latitude Longitude Heading Altitude Ground
Speed
11-Feb-19 09:08 28.550381 -81.340392 359 114ft 157kts
11-Feb-19 09:10 36.783062 -119.732422 125 338ft 0kts
11-Feb-19 09:11 36.783062 -119.732422 125 338ft 0kts
11-Feb-19 09:12 36.783062 -119.732422 125 338ft 0kts
11-Feb-19 09:13 36.783062 -119.732422 125 338ft 0kts
11-Feb-19 09:13 36.783062 -119.732422 125 338ft 0kts
11-Feb-19 09:15 36.783062 -119.732422 125 338ft 0kts
11-Feb-19 09:16 36.783062 -119.732422 125 338ft 0kts
11-Feb-19 09:16 36.783062 -119.732422 125 338ft 0kts
11-Feb-19 09:17 36.783062 -119.732422 125 338ft 0kts
11-Feb-19 09:18 36.783062 -119.732422 125 338ft 0kts
11-Feb-19 09:19 36.783062 -119.732422 125 338ft 0kts
11-Feb-19 09:20 36.783062 -119.732422 125 338ft 0kts
11-Feb-19 09:21 33.673593 -117.872231 207 58ft 0kts
11-Feb-19 09:22 33.673530 -117.872000 8 58ft 5kts
11-Feb-19 09:23 33.675601 -117.872111 94 58ft 0kts
11-Feb-19 09:24 33.675601 -117.872111 94 58ft 0kts
11-Feb-19 09:25 33.675601 -117.872111 94 58ft 1kts
11-Feb-19 09:26 33.675601 -117.872111 94 58ft 2kts
11-Feb-19 09:27 33.675601 -117.872111 94 58ft 0kts
11-Feb-19 09:28 33.675601 -117.872111 94 58ft 0kts
11-Feb-19 09:29 33.675601 -117.872111 94 58ft 2kts
11-Feb-19 09:30 33.675601 -117.872111 94 58ft 0kts
11-Feb-19 09:31 33.675601 -117.872111 94 58ft 1kts
11-Feb-19 09:32 33.675601 -117.872111 94 58ft 1kts
11-Feb-19 09:33 33.675601 -117.872111 94 58ft 1kts
11-Feb-19 09:34 33.675601 -117.872111 94 58ft 2kts
11-Feb-19 09:35 33.675601 -117.872111 94 58ft 0kts
11-Feb-19 09:36 33.675601 -117.872111 94 58ft 0kts
11-Feb-19 09:37 33.675601 -117.872111 94 58ft 1kts
11-Feb-19 09:38 33.675601 -117.872111 94 58ft 1kts
11-Feb-19 09:39 33.675601 -117.872111 94 58ft 0kts
11-Feb-19 09:40 33.675601 -117.872111 94 58ft 2kts
11-Feb-19 09:41 33.675601 -117.872111 94 58ft 1kts
11-Feb-19 09:42 33.676681 -117.869843 30 58ft 9kts
11-Feb-19 09:43 33.680386 -117.867706 27 58ft 13kts
11-Feb-19 09:44 33.681913 -117.866295 120 58ft 1kts
11-Feb-19 09:45 33.680909 -117.866702 116 58ft 2kts
11-Feb-19 09:46 33.680909 -117.866702 116 58ft 2kts
11-Feb-19 09:47 33.680909 -117.866702 116 58ft 0kts
11-Feb-19 09:48 33.676051 -117.868698 208 64ft 75kts
11-Feb-19 09:49 33.656478 -117.891801 233 1298ft 90kts
11-Feb-19 09:50 33.640055 -117.920382 233 2117ft 113kts
11-Feb-19 09:51 33.633511 -117.953626 324 2871ft 120kts
11-Feb-19 09:52 33.667688 -117.942661 22 2987ft 146kts
11-Feb-19 09:53 33.706129 -117.922496 22 2988ft 153kts
11-Feb-19 09:54 33.746454 -117.901382 22 2988ft 158kts
11-Feb-19 09:55 33.787286 -117.880007 22 2987ft 160kts
11-Feb-19 09:56 33.828595 -117.858374 22 2987ft 162kts
11-Feb-19 09:57 33.868910 -117.837263 22 2986ft 154kts
11-Feb-19 09:58 33.907474 -117.817020 22 2987ft 148kts
11-Feb-19 09:59 33.911850 -117.776244 112 2990ft 147kts
11-Feb-19 10:00 33.884857 -117.747948 182 2996ft 144kts
11-Feb-19 10:01 33.846260 -117.760496 207 2990ft 147kts
11-Feb-19 10:02 33.812187 -117.781958 205 2855ft 129kts
11-Feb-19 10:03 33.779889 -117.802652 207 2289ft 137kts
11-Feb-19 10:04 33.746287 -117.823919 207 1544ft 139kts
11-Feb-19 10:05 33.711981 -117.845758 207 760ft 135kts
11-Feb-19 10:06 33.681505 -117.865153 207 115ft 96kts
11-Feb-19 10:07 33.675835 -117.869943 297 58ft 0kts
11-Feb-19 10:08 33.676704 -117.871189 298 58ft 0kts
11-Feb-19 10:09 33.676704 -117.871189 298 58ft 0kts
11-Feb-19 10:10 33.676704 -117.871189 298 58ft 0kts
11-Feb-19 10:11 33.676704 -117.871189 298 58ft 1kts
11-Feb-19 10:12 33.676704 -117.871189 298 58ft 0kts

Navigation Log

Ident Type
Flight plan parsing failed, navigation log unavailable